Terminal Aerodrome Forecast
Issued by NWS

Home | Current Version | Previous Version | Text Only | Print | Product List | Glossary On
Versions: 1 2 3 4 5 6 7 8 9 10 11 12 13 14 15 16 17 18 19 20
000
FTUS43 KAPX 171730
TAFAPN
TAF
KAPN 171730Z 1718/1818 24010G19KT P6SM OVC120
     FM172000 24014G22KT P6SM SCT200
     FM180000 24012KT P6SM SCT200 WS020/26045KT
     FM180900 25008KT P6SM SCT050 WS020/27040KT
     FM181100 25007KT P6SM BKN035
     FM181200 25007KT P6SM BKN030=

USA.gov is the U.S. government's official web portal to all federal, state and local government web resources and services.